sensor_id;sensor_type;location;lat;lon;timestamp;P1;durP1;ratioP1;P2;durP2;ratioP2
29776;SDS011;16677;52.224;7.484;2023-09-30T00:01:27;16.10;;;4.97;;
29776;SDS011;16677;52.224;7.484;2023-09-30T00:03:54;16.97;;;5.13;;
29776;SDS011;16677;52.224;7.484;2023-09-30T00:06:22;17.07;;;5.27;;
29776;SDS011;16677;52.224;7.484;2023-09-30T00:08:49;17.53;;;5.50;;
29776;SDS011;16677;52.224;7.484;2023-09-30T00:11:16;15.33;;;5.27;;
29776;SDS011;16677;52.224;7.484;2023-09-30T00:13:43;15.90;;;5.07;;
29776;SDS011;16677;52.224;7.484;2023-09-30T00:16:12;17.13;;;5.00;;
29776;SDS011;16677;52.224;7.484;2023-09-30T00:18:39;11.57;;;5.23;;
29776;SDS011;16677;52.224;7.484;2023-09-30T00:21:06;17.90;;;5.33;;
29776;SDS011;16677;52.224;7.484;2023-09-30T00:23:34;14.13;;;5.20;;
29776;SDS011;16677;52.224;7.484;2023-09-30T00:26:01;17.93;;;5.10;;
29776;SDS011;16677;52.224;7.484;2023-09-30T00:28:28;22.40;;;5.13;;
29776;SDS011;16677;52.224;7.484;2023-09-30T00:30:55;13.07;;;4.63;;
29776;SDS011;16677;52.224;7.484;2023-09-30T00:33:23;18.63;;;5.70;;
29776;SDS011;16677;52.224;7.484;2023-09-30T00:35:50;15.80;;;4.97;;
29776;SDS011;16677;52.224;7.484;2023-09-30T00:38:17;20.37;;;5.73;;
29776;SDS011;16677;52.224;7.484;2023-09-30T00:40:47;16.13;;;5.87;;
29776;SDS011;16677;52.224;7.484;2023-09-30T00:43:18;12.07;;;4.77;;
29776;SDS011;16677;52.224;7.484;2023-09-30T00:45:49;19.60;;;5.30;;
29776;SDS011;16677;52.224;7.484;2023-09-30T00:48:22;17.73;;;5.30;;
29776;SDS011;16677;52.224;7.484;2023-09-30T00:50:49;18.87;;;5.53;;
29776;SDS011;16677;52.224;7.484;2023-09-30T00:53:16;16.30;;;5.23;;
29776;SDS011;16677;52.224;7.484;2023-09-30T00:55:44;22.60;;;6.43;;
29776;SDS011;16677;52.224;7.484;2023-09-30T00:58:11;17.60;;;5.83;;
29776;SDS011;16677;52.224;7.484;2023-09-30T01:00:38;16.57;;;6.17;;
29776;SDS011;16677;52.224;7.484;2023-09-30T01:03:06;15.30;;;5.60;;
29776;SDS011;16677;52.224;7.484;2023-09-30T01:05:34;10.37;;;5.30;;
29776;SDS011;16677;52.224;7.484;2023-09-30T01:08:01;15.63;;;5.37;;
29776;SDS011;16677;52.224;7.484;2023-09-30T01:10:29;19.37;;;6.07;;
29776;SDS011;16677;52.224;7.484;2023-09-30T01:12:56;20.73;;;6.10;;
29776;SDS011;16677;52.224;7.484;2023-09-30T01:15:24;16.87;;;6.17;;
29776;SDS011;16677;52.224;7.484;2023-09-30T01:17:51;20.20;;;5.73;;
29776;SDS011;16677;52.224;7.484;2023-09-30T01:20:18;18.83;;;6.10;;
29776;SDS011;16677;52.224;7.484;2023-09-30T01:22:48;15.63;;;5.70;;
29776;SDS011;16677;52.224;7.484;2023-09-30T01:25:15;15.67;;;6.23;;
29776;SDS011;16677;52.224;7.484;2023-09-30T01:27:42;20.43;;;5.40;;
29776;SDS011;16677;52.224;7.484;2023-09-30T01:30:10;13.37;;;5.53;;
29776;SDS011;16677;52.224;7.484;2023-09-30T01:32:37;11.87;;;5.73;;
29776;SDS011;16677;52.224;7.484;2023-09-30T01:35:04;21.63;;;6.40;;
29776;SDS011;16677;52.224;7.484;2023-09-30T01:37:32;15.50;;;5.00;;
29776;SDS011;16677;52.224;7.484;2023-09-30T01:39:59;15.60;;;5.70;;
29776;SDS011;16677;52.224;7.484;2023-09-30T01:42:26;17.97;;;5.27;;
29776;SDS011;16677;52.224;7.484;2023-09-30T01:44:53;13.13;;;5.13;;
29776;SDS011;16677;52.224;7.484;2023-09-30T01:47:20;16.70;;;5.90;;
29776;SDS011;16677;52.224;7.484;2023-09-30T01:49:48;10.77;;;5.53;;
29776;SDS011;16677;52.224;7.484;2023-09-30T01:52:15;15.87;;;5.47;;
29776;SDS011;16677;52.224;7.484;2023-09-30T01:54:42;16.47;;;5.40;;
29776;SDS011;16677;52.224;7.484;2023-09-30T01:57:09;19.80;;;6.50;;
29776;SDS011;16677;52.224;7.484;2023-09-30T01:59:36;17.10;;;5.90;;
29776;SDS011;16677;52.224;7.484;2023-09-30T02:02:03;16.73;;;6.50;;
29776;SDS011;16677;52.224;7.484;2023-09-30T02:04:30;15.57;;;5.60;;
29776;SDS011;16677;52.224;7.484;2023-09-30T02:06:57;21.47;;;6.23;;
29776;SDS011;16677;52.224;7.484;2023-09-30T02:09:24;17.27;;;5.60;;
29776;SDS011;16677;52.224;7.484;2023-09-30T02:11:52;13.57;;;6.10;;
29776;SDS011;16677;52.224;7.484;2023-09-30T02:14:19;19.07;;;5.60;;
29776;SDS011;16677;52.224;7.484;2023-09-30T02:16:46;14.97;;;5.87;;
29776;SDS011;16677;52.224;7.484;2023-09-30T02:19:14;16.83;;;6.30;;
29776;SDS011;16677;52.224;7.484;2023-09-30T02:21:40;16.93;;;5.93;;
29776;SDS011;16677;52.224;7.484;2023-09-30T02:24:08;14.13;;;5.43;;
29776;SDS011;16677;52.224;7.484;2023-09-30T02:26:36;16.40;;;5.50;;
29776;SDS011;16677;52.224;7.484;2023-09-30T02:29:05;22.17;;;6.43;;
29776;SDS011;16677;52.224;7.484;2023-09-30T02:31:34;16.93;;;6.00;;
29776;SDS011;16677;52.224;7.484;2023-09-30T02:34:01;15.17;;;6.20;;
29776;SDS011;16677;52.224;7.484;2023-09-30T02:36:29;16.73;;;6.40;;
29776;SDS011;16677;52.224;7.484;2023-09-30T02:38:56;21.47;;;6.77;;
29776;SDS011;16677;52.224;7.484;2023-09-30T02:41:24;17.37;;;6.30;;
29776;SDS011;16677;52.224;7.484;2023-09-30T02:43:51;18.43;;;6.33;;
29776;SDS011;16677;52.224;7.484;2023-09-30T02:46:18;16.07;;;5.43;;
29776;SDS011;16677;52.224;7.484;2023-09-30T02:48:45;17.30;;;6.27;;
29776;SDS011;16677;52.224;7.484;2023-09-30T02:51:12;18.17;;;7.00;;
29776;SDS011;16677;52.224;7.484;2023-09-30T02:53:39;12.23;;;5.97;;
29776;SDS011;16677;52.224;7.484;2023-09-30T02:56:06;20.57;;;6.50;;
29776;SDS011;16677;52.224;7.484;2023-09-30T02:58:33;16.17;;;6.30;;
29776;SDS011;16677;52.224;7.484;2023-09-30T03:01:00;15.53;;;5.70;;
29776;SDS011;16677;52.224;7.484;2023-09-30T03:03:28;15.00;;;5.70;;
29776;SDS011;16677;52.224;7.484;2023-09-30T03:05:57;20.33;;;5.80;;
29776;SDS011;16677;52.224;7.484;2023-09-30T03:08:24;16.00;;;5.93;;
29776;SDS011;16677;52.224;7.484;2023-09-30T03:10:51;17.27;;;6.10;;
29776;SDS011;16677;52.224;7.484;2023-09-30T03:13:19;17.70;;;6.03;;
29776;SDS011;16677;52.224;7.484;2023-09-30T03:15:48;19.13;;;6.20;;
29776;SDS011;16677;52.224;7.484;2023-09-30T03:18:18;12.53;;;6.33;;
29776;SDS011;16677;52.224;7.484;2023-09-30T03:20:50;14.90;;;6.33;;
29776;SDS011;16677;52.224;7.484;2023-09-30T03:23:17;19.80;;;5.77;;
29776;SDS011;16677;52.224;7.484;2023-09-30T03:25:44;15.97;;;5.80;;
29776;SDS011;16677;52.224;7.484;2023-09-30T03:28:11;11.80;;;6.13;;
29776;SDS011;16677;52.224;7.484;2023-09-30T03:30:38;17.17;;;6.43;;
29776;SDS011;16677;52.224;7.484;2023-09-30T03:33:07;16.47;;;6.47;;
29776;SDS011;16677;52.224;7.484;2023-09-30T03:35:34;24.87;;;6.93;;
29776;SDS011;16677;52.224;7.484;2023-09-30T03:38:03;12.97;;;6.43;;
29776;SDS011;16677;52.224;7.484;2023-09-30T03:40:31;17.97;;;6.17;;
29776;SDS011;16677;52.224;7.484;2023-09-30T03:43:00;16.97;;;5.90;;
29776;SDS011;16677;52.224;7.484;2023-09-30T03:45:27;20.17;;;6.67;;
29776;SDS011;16677;52.224;7.484;2023-09-30T03:47:55;14.73;;;6.33;;
29776;SDS011;16677;52.224;7.484;2023-09-30T03:50:22;20.10;;;6.93;;
29776;SDS011;16677;52.224;7.484;2023-09-30T03:52:50;16.67;;;6.97;;
29776;SDS011;16677;52.224;7.484;2023-09-30T03:55:17;16.13;;;5.80;;
29776;SDS011;16677;52.224;7.484;2023-09-30T03:57:48;17.50;;;6.07;;
29776;SDS011;16677;52.224;7.484;2023-09-30T04:00:18;16.47;;;6.37;;
29776;SDS011;16677;52.224;7.484;2023-09-30T04:02:47;11.00;;;5.80;;
29776;SDS011;16677;52.224;7.484;2023-09-30T04:05:17;12.20;;;5.90;;
29776;SDS011;16677;52.224;7.484;2023-09-30T04:07:46;15.03;;;7.33;;
29776;SDS011;16677;52.224;7.484;2023-09-30T04:10:13;20.63;;;6.20;;
29776;SDS011;16677;52.224;7.484;2023-09-30T04:12:41;14.80;;;6.27;;
29776;SDS011;16677;52.224;7.484;2023-09-30T04:15:08;12.90;;;6.47;;
29776;SDS011;16677;52.224;7.484;2023-09-30T04:17:39;14.43;;;6.67;;
29776;SDS011;16677;52.224;7.484;2023-09-30T04:20:06;15.20;;;6.73;;
29776;SDS011;16677;52.224;7.484;2023-09-30T04:22:43;14.30;;;6.63;;
29776;SDS011;16677;52.224;7.484;2023-09-30T04:25:16;11.77;;;6.63;;
29776;SDS011;16677;52.224;7.484;2023-09-30T04:27:44;13.97;;;6.57;;
29776;SDS011;16677;52.224;7.484;2023-09-30T04:30:15;17.30;;;6.80;;
29776;SDS011;16677;52.224;7.484;2023-09-30T04:32:43;18.97;;;7.00;;
29776;SDS011;16677;52.224;7.484;2023-09-30T04:35:11;17.10;;;7.23;;
29776;SDS011;16677;52.224;7.484;2023-09-30T04:37:38;17.27;;;7.40;;
29776;SDS011;16677;52.224;7.484;2023-09-30T04:40:06;18.10;;;7.30;;
29776;SDS011;16677;52.224;7.484;2023-09-30T04:42:47;12.30;;;6.80;;
29776;SDS011;16677;52.224;7.484;2023-09-30T04:45:14;15.13;;;7.57;;
29776;SDS011;16677;52.224;7.484;2023-09-30T04:47:51;13.77;;;6.83;;
29776;SDS011;16677;52.224;7.484;2023-09-30T04:50:19;18.77;;;7.53;;
29776;SDS011;16677;52.224;7.484;2023-09-30T04:52:49;16.37;;;7.50;;
29776;SDS011;16677;52.224;7.484;2023-09-30T04:55:18;14.23;;;7.27;;
29776;SDS011;16677;52.224;7.484;2023-09-30T04:57:45;19.37;;;8.10;;
29776;SDS011;16677;52.224;7.484;2023-09-30T05:00:15;14.07;;;7.70;;
29776;SDS011;16677;52.224;7.484;2023-09-30T05:02:45;18.97;;;8.60;;
29776;SDS011;16677;52.224;7.484;2023-09-30T05:05:13;14.03;;;7.87;;
29776;SDS011;16677;52.224;7.484;2023-09-30T05:07:41;16.17;;;7.80;;
29776;SDS011;16677;52.224;7.484;2023-09-30T05:10:09;15.33;;;6.90;;
29776;SDS011;16677;52.224;7.484;2023-09-30T05:12:40;16.53;;;7.80;;
29776;SDS011;16677;52.224;7.484;2023-09-30T05:15:13;16.40;;;7.77;;
29776;SDS011;16677;52.224;7.484;2023-09-30T05:17:46;21.77;;;8.30;;
29776;SDS011;16677;52.224;7.484;2023-09-30T05:20:15;17.77;;;7.87;;
29776;SDS011;16677;52.224;7.484;2023-09-30T05:22:46;19.90;;;8.23;;
29776;SDS011;16677;52.224;7.484;2023-09-30T05:25:15;14.93;;;7.93;;
29776;SDS011;16677;52.224;7.484;2023-09-30T05:27:44;15.93;;;7.87;;
29776;SDS011;16677;52.224;7.484;2023-09-30T05:30:14;13.30;;;8.13;;
29776;SDS011;16677;52.224;7.484;2023-09-30T05:32:42;23.47;;;8.83;;
29776;SDS011;16677;52.224;7.484;2023-09-30T05:35:09;17.90;;;8.00;;
29776;SDS011;16677;52.224;7.484;2023-09-30T05:37:43;16.07;;;8.37;;
29776;SDS011;16677;52.224;7.484;2023-09-30T05:40:13;13.80;;;8.43;;
29776;SDS011;16677;52.224;7.484;2023-09-30T05:42:49;17.63;;;8.13;;
29776;SDS011;16677;52.224;7.484;2023-09-30T05:45:21;16.43;;;8.87;;
29776;SDS011;16677;52.224;7.484;2023-09-30T05:47:50;15.03;;;8.37;;
29776;SDS011;16677;52.224;7.484;2023-09-30T05:50:19;14.37;;;8.63;;
29776;SDS011;16677;52.224;7.484;2023-09-30T05:52:52;16.47;;;7.37;;
29776;SDS011;16677;52.224;7.484;2023-09-30T05:55:20;14.23;;;7.87;;
29776;SDS011;16677;52.224;7.484;2023-09-30T05:57:48;13.33;;;7.60;;
29776;SDS011;16677;52.224;7.484;2023-09-30T06:00:19;14.17;;;7.73;;
29776;SDS011;16677;52.224;7.484;2023-09-30T06:02:57;16.10;;;7.27;;
29776;SDS011;16677;52.224;7.484;2023-09-30T06:05:26;14.27;;;8.20;;
29776;SDS011;16677;52.224;7.484;2023-09-30T06:07:56;18.03;;;8.27;;
29776;SDS011;16677;52.224;7.484;2023-09-30T06:10:23;13.53;;;7.33;;
29776;SDS011;16677;52.224;7.484;2023-09-30T06:12:52;16.67;;;9.53;;
29776;SDS011;16677;52.224;7.484;2023-09-30T06:15:23;14.13;;;8.33;;
29776;SDS011;16677;52.224;7.484;2023-09-30T06:17:55;20.33;;;8.80;;
29776;SDS011;16677;52.224;7.484;2023-09-30T06:20:23;17.63;;;8.83;;
29776;SDS011;16677;52.224;7.484;2023-09-30T06:22:54;14.50;;;7.83;;
29776;SDS011;16677;52.224;7.484;2023-09-30T06:25:21;15.97;;;8.27;;
29776;SDS011;16677;52.224;7.484;2023-09-30T06:27:50;15.37;;;7.97;;
29776;SDS011;16677;52.224;7.484;2023-09-30T06:30:18;15.23;;;8.33;;
29776;SDS011;16677;52.224;7.484;2023-09-30T06:32:48;18.00;;;8.47;;
29776;SDS011;16677;52.224;7.484;2023-09-30T06:35:16;14.67;;;7.37;;
29776;SDS011;16677;52.224;7.484;2023-09-30T06:37:46;13.67;;;8.70;;
29776;SDS011;16677;52.224;7.484;2023-09-30T06:40:13;17.17;;;8.27;;
29776;SDS011;16677;52.224;7.484;2023-09-30T06:45:08;14.43;;;7.90;;
29776;SDS011;16677;52.224;7.484;2023-09-30T06:47:37;15.27;;;8.03;;
29776;SDS011;16677;52.224;7.484;2023-09-30T06:50:11;14.57;;;7.87;;
29776;SDS011;16677;52.224;7.484;2023-09-30T06:52:43;9.33;;;6.40;;
29776;SDS011;16677;52.224;7.484;2023-09-30T06:55:16;12.32;;;7.30;;
29776;SDS011;16677;52.224;7.484;2023-09-30T06:57:43;11.27;;;7.50;;
29776;SDS011;16677;52.224;7.484;2023-09-30T07:00:12;12.93;;;7.75;;
29776;SDS011;16677;52.224;7.484;2023-09-30T07:02:40;11.53;;;6.87;;
29776;SDS011;16677;52.224;7.484;2023-09-30T07:05:13;11.50;;;7.30;;
29776;SDS011;16677;52.224;7.484;2023-09-30T07:07:41;12.23;;;7.07;;
29776;SDS011;16677;52.224;7.484;2023-09-30T07:10:12;13.77;;;6.87;;
29776;SDS011;16677;52.224;7.484;2023-09-30T07:12:39;12.77;;;6.90;;
29776;SDS011;16677;52.224;7.484;2023-09-30T07:15:06;15.20;;;8.30;;
29776;SDS011;16677;52.224;7.484;2023-09-30T07:17:35;11.67;;;6.93;;
29776;SDS011;16677;52.224;7.484;2023-09-30T07:20:03;11.10;;;6.20;;
29776;SDS011;16677;52.224;7.484;2023-09-30T07:22:32;11.57;;;7.27;;
29776;SDS011;16677;52.224;7.484;2023-09-30T07:25:18;11.13;;;7.00;;
29776;SDS011;16677;52.224;7.484;2023-09-30T07:27:45;13.70;;;8.10;;
29776;SDS011;16677;52.224;7.484;2023-09-30T07:30:13;12.57;;;7.50;;
29776;SDS011;16677;52.224;7.484;2023-09-30T07:32:44;13.50;;;7.60;;
29776;SDS011;16677;52.224;7.484;2023-09-30T07:35:12;12.67;;;6.97;;
29776;SDS011;16677;52.224;7.484;2023-09-30T07:37:42;11.20;;;7.50;;
29776;SDS011;16677;52.224;7.484;2023-09-30T07:40:10;12.57;;;7.40;;
29776;SDS011;16677;52.224;7.484;2023-09-30T07:42:38;13.27;;;7.30;;
29776;SDS011;16677;52.224;7.484;2023-09-30T07:45:05;12.93;;;7.57;;
29776;SDS011;16677;52.224;7.484;2023-09-30T07:47:32;9.93;;;6.70;;
29776;SDS011;16677;52.224;7.484;2023-09-30T07:50:01;10.80;;;7.40;;
29776;SDS011;16677;52.224;7.484;2023-09-30T07:52:32;12.70;;;8.07;;
29776;SDS011;16677;52.224;7.484;2023-09-30T07:54:59;12.97;;;7.43;;
29776;SDS011;16677;52.224;7.484;2023-09-30T07:57:26;14.93;;;7.60;;
29776;SDS011;16677;52.224;7.484;2023-09-30T07:59:54;11.13;;;7.10;;
29776;SDS011;16677;52.224;7.484;2023-09-30T08:02:22;15.37;;;7.07;;
29776;SDS011;16677;52.224;7.484;2023-09-30T08:04:51;10.93;;;6.70;;
29776;SDS011;16677;52.224;7.484;2023-09-30T08:07:18;12.90;;;6.97;;
29776;SDS011;16677;52.224;7.484;2023-09-30T08:09:47;11.20;;;7.03;;
29776;SDS011;16677;52.224;7.484;2023-09-30T08:12:14;12.63;;;7.33;;
29776;SDS011;16677;52.224;7.484;2023-09-30T08:14:41;13.67;;;6.60;;
29776;SDS011;16677;52.224;7.484;2023-09-30T08:17:10;11.00;;;6.77;;
29776;SDS011;16677;52.224;7.484;2023-09-30T08:19:38;12.40;;;6.90;;
29776;SDS011;16677;52.224;7.484;2023-09-30T08:22:04;12.83;;;6.80;;
29776;SDS011;16677;52.224;7.484;2023-09-30T08:24:33;11.10;;;6.37;;
29776;SDS011;16677;52.224;7.484;2023-09-30T08:27:00;11.83;;;6.93;;
29776;SDS011;16677;52.224;7.484;2023-09-30T08:29:27;14.90;;;7.67;;
29776;SDS011;16677;52.224;7.484;2023-09-30T08:31:54;11.80;;;7.33;;
29776;SDS011;16677;52.224;7.484;2023-09-30T08:34:21;16.83;;;7.30;;
29776;SDS011;16677;52.224;7.484;2023-09-30T08:36:50;13.77;;;7.20;;
29776;SDS011;16677;52.224;7.484;2023-09-30T08:39:17;12.77;;;7.87;;
29776;SDS011;16677;52.224;7.484;2023-09-30T08:41:44;14.50;;;7.30;;
29776;SDS011;16677;52.224;7.484;2023-09-30T08:44:12;13.40;;;7.33;;
29776;SDS011;16677;52.224;7.484;2023-09-30T08:46:40;10.10;;;7.03;;
29776;SDS011;16677;52.224;7.484;2023-09-30T08:49:08;9.70;;;6.90;;
29776;SDS011;16677;52.224;7.484;2023-09-30T08:51:37;11.67;;;7.10;;
29776;SDS011;16677;52.224;7.484;2023-09-30T08:54:05;10.47;;;6.10;;
29776;SDS011;16677;52.224;7.484;2023-09-30T08:56:32;10.33;;;7.50;;
29776;SDS011;16677;52.224;7.484;2023-09-30T08:59:00;12.07;;;6.83;;
29776;SDS011;16677;52.224;7.484;2023-09-30T09:01:29;14.57;;;6.83;;
29776;SDS011;16677;52.224;7.484;2023-09-30T09:03:57;10.23;;;7.63;;
29776;SDS011;16677;52.224;7.484;2023-09-30T09:06:25;10.20;;;6.63;;
29776;SDS011;16677;52.224;7.484;2023-09-30T09:08:53;15.27;;;7.10;;
29776;SDS011;16677;52.224;7.484;2023-09-30T09:11:20;12.97;;;8.10;;
29776;SDS011;16677;52.224;7.484;2023-09-30T09:13:50;12.73;;;7.37;;
29776;SDS011;16677;52.224;7.484;2023-09-30T09:16:23;12.57;;;6.77;;
29776;SDS011;16677;52.224;7.484;2023-09-30T09:18:51;15.00;;;8.27;;
29776;SDS011;16677;52.224;7.484;2023-09-30T09:21:20;11.43;;;7.40;;
29776;SDS011;16677;52.224;7.484;2023-09-30T09:23:54;11.60;;;7.30;;
29776;SDS011;16677;52.224;7.484;2023-09-30T09:26:25;9.60;;;7.17;;
29776;SDS011;16677;52.224;7.484;2023-09-30T09:29:10;10.03;;;6.83;;
29776;SDS011;16677;52.224;7.484;2023-09-30T09:31:37;13.83;;;7.60;;
29776;SDS011;16677;52.224;7.484;2023-09-30T09:34:12;16.20;;;7.03;;
29776;SDS011;16677;52.224;7.484;2023-09-30T09:39:12;12.57;;;7.47;;
29776;SDS011;16677;52.224;7.484;2023-09-30T09:41:52;10.20;;;6.70;;
29776;SDS011;16677;52.224;7.484;2023-09-30T09:44:22;14.03;;;6.90;;
29776;SDS011;16677;52.224;7.484;2023-09-30T09:46:53;10.27;;;6.40;;
29776;SDS011;16677;52.224;7.484;2023-09-30T09:49:21;12.73;;;7.13;;
29776;SDS011;16677;52.224;7.484;2023-09-30T09:51:48;11.93;;;6.27;;
29776;SDS011;16677;52.224;7.484;2023-09-30T09:54:16;12.00;;;6.77;;
29776;SDS011;16677;52.224;7.484;2023-09-30T09:56:44;12.70;;;6.47;;
29776;SDS011;16677;52.224;7.484;2023-09-30T09:59:12;13.73;;;6.37;;
29776;SDS011;16677;52.224;7.484;2023-09-30T10:01:40;9.57;;;6.10;;
29776;SDS011;16677;52.224;7.484;2023-09-30T10:04:11;12.93;;;6.53;;
29776;SDS011;16677;52.224;7.484;2023-09-30T10:06:42;10.83;;;6.00;;
29776;SDS011;16677;52.224;7.484;2023-09-30T10:09:15;10.00;;;5.63;;
29776;SDS011;16677;52.224;7.484;2023-09-30T10:11:44;13.77;;;6.30;;
29776;SDS011;16677;52.224;7.484;2023-09-30T10:14:29;12.27;;;6.53;;
29776;SDS011;16677;52.224;7.484;2023-09-30T10:17:00;8.70;;;6.47;;
29776;SDS011;16677;52.224;7.484;2023-09-30T10:19:28;11.83;;;6.30;;
29776;SDS011;16677;52.224;7.484;2023-09-30T10:24:43;9.23;;;5.70;;
29776;SDS011;16677;52.224;7.484;2023-09-30T10:27:31;9.37;;;5.73;;
29776;SDS011;16677;52.224;7.484;2023-09-30T10:35:17;11.17;;;6.13;;
29776;SDS011;16677;52.224;7.484;2023-09-30T10:37:45;11.67;;;5.53;;
29776;SDS011;16677;52.224;7.484;2023-09-30T10:40:26;10.60;;;5.40;;
29776;SDS011;16677;52.224;7.484;2023-09-30T10:42:55;9.03;;;5.37;;
29776;SDS011;16677;52.224;7.484;2023-09-30T10:45:42;7.90;;;4.63;;
29776;SDS011;16677;52.224;7.484;2023-09-30T10:51:13;8.57;;;3.97;;
29776;SDS011;16677;52.224;7.484;2023-09-30T10:53:48;9.87;;;4.80;;
29776;SDS011;16677;52.224;7.484;2023-09-30T10:56:19;10.87;;;4.20;;
29776;SDS011;16677;52.224;7.484;2023-09-30T11:01:15;7.90;;;4.00;;
29776;SDS011;16677;52.224;7.484;2023-09-30T11:03:47;8.27;;;4.40;;
29776;SDS011;16677;52.224;7.484;2023-09-30T11:06:20;7.73;;;3.87;;
29776;SDS011;16677;52.224;7.484;2023-09-30T11:14:02;9.97;;;4.30;;
29776;SDS011;16677;52.224;7.484;2023-09-30T11:16:41;9.23;;;4.43;;
29776;SDS011;16677;52.224;7.484;2023-09-30T11:19:12;9.27;;;4.40;;
29776;SDS011;16677;52.224;7.484;2023-09-30T11:21:39;10.27;;;3.90;;
29776;SDS011;16677;52.224;7.484;2023-09-30T11:24:07;6.60;;;3.50;;
29776;SDS011;16677;52.224;7.484;2023-09-30T11:26:34;10.15;;;4.28;;
29776;SDS011;16677;52.224;7.484;2023-09-30T11:29:09;9.37;;;4.37;;
29776;SDS011;16677;52.224;7.484;2023-09-30T11:31:39;7.10;;;3.70;;
29776;SDS011;16677;52.224;7.484;2023-09-30T11:34:07;8.73;;;3.57;;
29776;SDS011;16677;52.224;7.484;2023-09-30T11:36:38;7.37;;;3.47;;
29776;SDS011;16677;52.224;7.484;2023-09-30T11:39:08;10.47;;;3.90;;
29776;SDS011;16677;52.224;7.484;2023-09-30T11:41:37;7.10;;;3.10;;
29776;SDS011;16677;52.224;7.484;2023-09-30T11:44:10;7.60;;;3.70;;
29776;SDS011;16677;52.224;7.484;2023-09-30T11:46:49;7.53;;;3.50;;
29776;SDS011;16677;52.224;7.484;2023-09-30T11:49:29;6.90;;;3.37;;
29776;SDS011;16677;52.224;7.484;2023-09-30T11:51:58;6.00;;;3.53;;
29776;SDS011;16677;52.224;7.484;2023-09-30T11:56:59;7.23;;;3.17;;
29776;SDS011;16677;52.224;7.484;2023-09-30T11:59:28;6.47;;;3.60;;
29776;SDS011;16677;52.224;7.484;2023-09-30T12:01:55;7.57;;;3.30;;
29776;SDS011;16677;52.224;7.484;2023-09-30T12:04:39;7.13;;;3.70;;
29776;SDS011;16677;52.224;7.484;2023-09-30T12:07:06;8.77;;;3.17;;
29776;SDS011;16677;52.224;7.484;2023-09-30T12:09:34;5.80;;;3.13;;
29776;SDS011;16677;52.224;7.484;2023-09-30T12:12:04;7.90;;;3.53;;
29776;SDS011;16677;52.224;7.484;2023-09-30T12:14:31;6.60;;;3.10;;
29776;SDS011;16677;52.224;7.484;2023-09-30T12:16:59;10.00;;;3.33;;
29776;SDS011;16677;52.224;7.484;2023-09-30T12:19:26;8.83;;;3.53;;
29776;SDS011;16677;52.224;7.484;2023-09-30T12:21:53;8.70;;;3.10;;
29776;SDS011;16677;52.224;7.484;2023-09-30T12:24:20;8.43;;;2.77;;
29776;SDS011;16677;52.224;7.484;2023-09-30T12:26:48;6.70;;;2.90;;
29776;SDS011;16677;52.224;7.484;2023-09-30T12:29:20;5.80;;;3.10;;
29776;SDS011;16677;52.224;7.484;2023-09-30T12:31:49;7.37;;;2.83;;
29776;SDS011;16677;52.224;7.484;2023-09-30T12:34:20;6.72;;;3.00;;
29776;SDS011;16677;52.224;7.484;2023-09-30T12:36:50;6.93;;;2.77;;
29776;SDS011;16677;52.224;7.484;2023-09-30T12:39:18;7.87;;;2.93;;
29776;SDS011;16677;52.224;7.484;2023-09-30T12:41:52;7.82;;;3.55;;
29776;SDS011;16677;52.224;7.484;2023-09-30T12:44:21;8.20;;;2.83;;
29776;SDS011;16677;52.224;7.484;2023-09-30T12:46:49;7.33;;;3.10;;
29776;SDS011;16677;52.224;7.484;2023-09-30T12:49:17;8.00;;;3.40;;
29776;SDS011;16677;52.224;7.484;2023-09-30T12:51:45;5.43;;;3.30;;
29776;SDS011;16677;52.224;7.484;2023-09-30T12:54:12;8.35;;;4.00;;
29776;SDS011;16677;52.224;7.484;2023-09-30T12:56:41;8.43;;;3.27;;
29776;SDS011;16677;52.224;7.484;2023-09-30T12:59:08;7.73;;;3.30;;
29776;SDS011;16677;52.224;7.484;2023-09-30T13:01:36;7.50;;;3.23;;
29776;SDS011;16677;52.224;7.484;2023-09-30T13:04:03;5.00;;;2.90;;
29776;SDS011;16677;52.224;7.484;2023-09-30T13:06:35;7.83;;;2.93;;
29776;SDS011;16677;52.224;7.484;2023-09-30T13:09:03;5.77;;;3.00;;
29776;SDS011;16677;52.224;7.484;2023-09-30T13:11:31;6.97;;;3.28;;
29776;SDS011;16677;52.224;7.484;2023-09-30T13:14:02;11.40;;;3.13;;
29776;SDS011;16677;52.224;7.484;2023-09-30T13:16:29;7.40;;;3.17;;
29776;SDS011;16677;52.224;7.484;2023-09-30T13:18:56;6.27;;;3.27;;
29776;SDS011;16677;52.224;7.484;2023-09-30T13:21:23;5.13;;;3.17;;
29776;SDS011;16677;52.224;7.484;2023-09-30T13:23:51;8.07;;;3.03;;
29776;SDS011;16677;52.224;7.484;2023-09-30T13:26:19;8.67;;;2.93;;
29776;SDS011;16677;52.224;7.484;2023-09-30T13:28:46;5.10;;;2.93;;
29776;SDS011;16677;52.224;7.484;2023-09-30T13:31:13;7.50;;;2.90;;
29776;SDS011;16677;52.224;7.484;2023-09-30T13:33:40;5.70;;;2.87;;
29776;SDS011;16677;52.224;7.484;2023-09-30T13:36:07;7.00;;;2.70;;
29776;SDS011;16677;52.224;7.484;2023-09-30T13:38:34;5.60;;;2.50;;
29776;SDS011;16677;52.224;7.484;2023-09-30T13:41:01;6.60;;;2.47;;
29776;SDS011;16677;52.224;7.484;2023-09-30T13:43:28;11.30;;;3.60;;
29776;SDS011;16677;52.224;7.484;2023-09-30T13:45:55;8.47;;;3.03;;
29776;SDS011;16677;52.224;7.484;2023-09-30T13:48:22;4.50;;;2.67;;
29776;SDS011;16677;52.224;7.484;2023-09-30T13:50:49;5.90;;;2.73;;
29776;SDS011;16677;52.224;7.484;2023-09-30T13:53:17;8.53;;;3.30;;
29776;SDS011;16677;52.224;7.484;2023-09-30T13:55:44;5.63;;;3.03;;
29776;SDS011;16677;52.224;7.484;2023-09-30T13:58:11;8.33;;;2.90;;
29776;SDS011;16677;52.224;7.484;2023-09-30T14:00:39;5.93;;;3.20;;
29776;SDS011;16677;52.224;7.484;2023-09-30T14:03:06;7.10;;;3.20;;
29776;SDS011;16677;52.224;7.484;2023-09-30T14:05:34;8.77;;;3.33;;
29776;SDS011;16677;52.224;7.484;2023-09-30T14:08:01;9.10;;;3.20;;
29776;SDS011;16677;52.224;7.484;2023-09-30T14:10:30;6.93;;;2.93;;
29776;SDS011;16677;52.224;7.484;2023-09-30T14:12:57;6.37;;;3.10;;
29776;SDS011;16677;52.224;7.484;2023-09-30T14:15:24;6.50;;;3.20;;
29776;SDS011;16677;52.224;7.484;2023-09-30T14:17:54;4.37;;;2.87;;
29776;SDS011;16677;52.224;7.484;2023-09-30T14:20:21;5.53;;;3.07;;
29776;SDS011;16677;52.224;7.484;2023-09-30T14:22:49;6.30;;;2.73;;
29776;SDS011;16677;52.224;7.484;2023-09-30T14:25:18;8.13;;;3.20;;
29776;SDS011;16677;52.224;7.484;2023-09-30T14:27:45;6.53;;;2.80;;
29776;SDS011;16677;52.224;7.484;2023-09-30T14:30:13;7.80;;;3.10;;
29776;SDS011;16677;52.224;7.484;2023-09-30T14:32:41;6.97;;;3.13;;
29776;SDS011;16677;52.224;7.484;2023-09-30T14:35:08;5.63;;;2.93;;
29776;SDS011;16677;52.224;7.484;2023-09-30T14:37:36;6.47;;;3.17;;
29776;SDS011;16677;52.224;7.484;2023-09-30T14:40:03;8.13;;;2.97;;
29776;SDS011;16677;52.224;7.484;2023-09-30T14:42:37;7.30;;;3.00;;
29776;SDS011;16677;52.224;7.484;2023-09-30T14:45:04;4.60;;;3.03;;
29776;SDS011;16677;52.224;7.484;2023-09-30T14:47:32;8.77;;;3.00;;
29776;SDS011;16677;52.224;7.484;2023-09-30T14:50:00;7.33;;;3.03;;
29776;SDS011;16677;52.224;7.484;2023-09-30T14:52:28;7.00;;;2.77;;
29776;SDS011;16677;52.224;7.484;2023-09-30T14:54:55;7.80;;;3.07;;
29776;SDS011;16677;52.224;7.484;2023-09-30T14:57:22;10.80;;;3.60;;
29776;SDS011;16677;52.224;7.484;2023-09-30T14:59:51;8.60;;;3.10;;
29776;SDS011;16677;52.224;7.484;2023-09-30T15:02:18;7.30;;;3.17;;
29776;SDS011;16677;52.224;7.484;2023-09-30T15:04:45;9.53;;;3.10;;
29776;SDS011;16677;52.224;7.484;2023-09-30T15:07:12;7.13;;;3.23;;
29776;SDS011;16677;52.224;7.484;2023-09-30T15:09:39;7.23;;;3.53;;
29776;SDS011;16677;52.224;7.484;2023-09-30T15:12:09;5.93;;;2.73;;
29776;SDS011;16677;52.224;7.484;2023-09-30T15:14:36;8.87;;;3.23;;